Time;durP1;ratioP1;P1;durP2;ratioP2;P2;SDS_P1;SDS_P2;PMS_P1;PMS_P2;Temp;Humidity;BMP_temperature;BMP_pressure;BME280_temperature;BME280_humidity;BME280_pressure;Samples;Min_cycle;Max_cycle;Signal;HPM_P1;HPM_P2
2021/08/03 00:00:40;;;;;;;1.40;0.80;;;;;;;16.64;70.45;100669.19;5044741;28;20208;-84
2021/08/03 00:03:09;;;;;;;2.47;0.97;;;;;;;16.61;70.81;100668.56;5045220;28;20700;-84
2021/08/03 00:05:40;;;;;;;1.70;0.90;;;;;;;16.60;70.77;100664.19;5045191;28;20304;-84
2021/08/03 00:08:11;;;;;;;1.27;0.70;;;;;;;16.58;70.78;100667.00;5039864;28;20258;-84
2021/08/03 00:10:38;;;;;;;1.27;0.70;;;;;;;16.56;71.04;100666.28;5048425;28;20205;-84
2021/08/03 00:13:04;;;;;;;1.43;0.70;;;;;;;16.57;71.11;100672.50;5047622;28;20657;-84
2021/08/03 00:15:32;;;;;;;0.90;0.70;;;;;;;16.55;71.21;100669.94;5038647;28;20204;-84
2021/08/03 00:17:59;;;;;;;0.90;0.90;;;;;;;16.52;71.09;100672.06;5046913;28;20641;-84
2021/08/03 00:20:37;;;;;;;2.40;0.97;;;;;;;16.51;71.05;100668.50;5042374;28;20206;-84
2021/08/03 00:23:04;;;;;;;1.30;0.60;;;;;;;16.49;71.42;100669.63;5040114;28;20818;-84
2021/08/03 00:25:31;;;;;;;1.73;0.90;;;;;;;16.47;71.47;100668.94;5043212;28;20202;-87
2021/08/03 00:27:57;;;;;;;1.30;0.80;;;;;;;16.43;71.51;100670.19;5045667;28;20211;-84
2021/08/03 00:30:25;;;;;;;1.90;0.80;;;;;;;16.39;71.58;100663.38;5051028;28;20214;-84
2021/08/03 00:32:54;;;;;;;1.50;0.70;;;;;;;16.35;71.81;100659.25;5050258;28;20206;-84
2021/08/03 00:35:21;;;;;;;2.33;0.80;;;;;;;16.30;72.03;100660.47;5051004;28;20547;-84
2021/08/03 00:37:47;;;;;;;2.20;0.90;;;;;;;16.27;71.97;100657.25;5046592;28;20231;-84
2021/08/03 00:40:16;;;;;;;2.50;0.80;;;;;;;16.25;72.09;100662.75;5048405;28;20289;-83
2021/08/03 00:42:42;;;;;;;1.53;0.80;;;;;;;16.28;72.13;100661.63;5048826;28;20228;-84
2021/08/03 00:45:10;;;;;;;0.97;0.90;;;;;;;16.31;72.39;100661.34;5043382;28;20211;-83
2021/08/03 00:47:36;;;;;;;1.20;0.90;;;;;;;16.31;72.60;100658.66;5049007;28;20256;-83
2021/08/03 00:50:06;;;;;;;0.73;0.63;;;;;;;16.32;72.54;100660.34;5046308;28;20202;-84
2021/08/03 00:52:32;;;;;;;2.13;0.80;;;;;;;16.33;72.32;100656.69;5060228;28;20210;-84
2021/08/03 00:54:59;;;;;;;1.47;0.80;;;;;;;16.33;72.50;100656.69;5060148;28;20577;-84
2021/08/03 00:57:26;;;;;;;1.83;0.93;;;;;;;16.33;72.47;100652.16;5062664;28;20591;-84
2021/08/03 00:59:52;;;;;;;1.70;0.90;;;;;;;16.36;72.74;100656.41;5064086;28;20197;-84
2021/08/03 01:02:19;;;;;;;2.97;0.90;;;;;;;16.38;72.47;100653.59;5054977;28;20227;-85
2021/08/03 01:04:46;;;;;;;1.97;0.77;;;;;;;16.37;72.66;100660.81;5063152;28;20375;-84
2021/08/03 01:07:23;;;;;;;1.17;0.77;;;;;;;16.36;72.26;100661.78;5058305;28;20760;-84
2021/08/03 01:10:03;;;;;;;1.20;0.70;;;;;;;16.34;72.04;100658.38;5068562;28;20280;-84
2021/08/03 01:12:43;;;;;;;1.17;0.80;;;;;;;16.32;72.52;100654.97;5051132;28;20208;-84
2021/08/03 01:15:13;;;;;;;1.83;0.80;;;;;;;16.31;72.54;100669.41;5053983;28;20200;-84
2021/08/03 01:17:45;;;;;;;1.67;0.70;;;;;;;16.28;72.58;100659.78;5062466;28;20231;-84
2021/08/03 01:20:19;;;;;;;1.10;0.63;;;;;;;16.29;72.98;100666.88;5050004;28;20836;-84
2021/08/03 01:23:08;;;;;;;1.00;0.90;;;;;;;16.28;72.81;100667.84;5049931;28;20595;-84
2021/08/03 01:25:43;;;;;;;1.63;0.80;;;;;;;16.28;73.07;100670.53;5051886;28;20198;-83
2021/08/03 01:28:21;;;;;;;1.17;0.63;;;;;;;16.25;72.92;100665.44;5051150;28;20563;-84
2021/08/03 01:30:53;;;;;;;1.80;0.80;;;;;;;16.24;73.71;100673.63;5054753;28;20213;-83
2021/08/03 01:33:24;;;;;;;1.23;0.70;;;;;;;16.23;73.58;100671.91;5061427;28;20721;-84
2021/08/03 01:35:53;;;;;;;1.30;0.93;;;;;;;16.24;73.68;100670.94;5067170;28;20223;-83
2021/08/03 01:38:21;;;;;;;1.50;0.73;;;;;;;16.25;73.98;100673.50;5069096;28;20209;-83
2021/08/03 01:40:51;;;;;;;1.43;0.73;;;;;;;16.26;74.13;100669.81;5059527;28;20212;-83
2021/08/03 01:43:20;;;;;;;0.97;0.70;;;;;;;16.26;74.10;100667.13;5065433;28;20773;-83
2021/08/03 01:45:49;;;;;;;2.07;0.60;;;;;;;16.26;73.89;100674.34;5060199;28;20207;-84
2021/08/03 01:48:16;;;;;;;3.27;0.90;;;;;;;16.24;74.07;100665.56;5071025;28;20225;-84
2021/08/03 01:50:45;;;;;;;0.97;0.80;;;;;;;16.23;74.05;100671.91;5070087;28;20213;-84
2021/08/03 01:53:12;;;;;;;1.40;0.70;;;;;;;16.20;74.06;100664.97;5060596;28;20209;-83
2021/08/03 01:55:40;;;;;;;1.23;0.87;;;;;;;16.17;74.35;100665.22;5071465;28;20292;-83
2021/08/03 01:58:07;;;;;;;0.87;0.73;;;;;;;16.16;74.32;100674.28;5061731;28;20197;-83
2021/08/03 02:00:35;;;;;;;2.40;0.90;;;;;;;16.15;74.38;100677.94;5071172;28;20572;-83
2021/08/03 02:03:03;;;;;;;1.37;0.90;;;;;;;16.13;74.46;100673.69;5056182;28;20600;-83
2021/08/03 02:05:30;;;;;;;1.37;0.70;;;;;;;16.12;74.85;100678.19;5068518;28;20857;-84
2021/08/03 02:07:56;;;;;;;1.37;0.80;;;;;;;16.11;74.89;100675.69;5066074;28;20288;-83
2021/08/03 02:10:23;;;;;;;1.63;0.80;;;;;;;16.09;74.60;100677.63;5064322;28;20216;-83
2021/08/03 02:12:50;;;;;;;1.07;0.77;;;;;;;16.08;75.07;100675.94;5068297;28;20208;-83
2021/08/03 02:15:17;;;;;;;1.33;0.90;;;;;;;16.07;74.89;100668.84;5060890;28;20217;-83
2021/08/03 02:17:45;;;;;;;1.77;0.93;;;;;;;16.04;75.07;100667.28;5067896;28;20223;-82
2021/08/03 02:20:12;;;;;;;1.70;0.80;;;;;;;16.03;74.85;100667.41;5061445;28;20207;-84
2021/08/03 02:22:38;;;;;;;1.37;0.90;;;;;;;16.01;74.74;100670.22;5061487;28;20225;-83
2021/08/03 02:25:08;;;;;;;1.17;1.07;;;;;;;15.99;75.01;100669.50;5065485;28;20201;-82
2021/08/03 02:27:34;;;;;;;1.40;0.90;;;;;;;15.98;75.05;100671.34;5068214;28;20229;-82
2021/08/03 02:30:01;;;;;;;1.70;1.00;;;;;;;15.98;74.98;100671.34;5066384;28;20217;-82
2021/08/03 02:32:32;;;;;;;2.37;1.00;;;;;;;15.98;74.90;100665.09;5068338;28;20666;-82
2021/08/03 02:35:06;;;;;;;1.47;1.00;;;;;;;15.95;74.70;100662.69;5059947;28;20544;-84
2021/08/03 02:37:35;;;;;;;2.60;1.00;;;;;;;15.92;74.95;100658.44;5062988;28;20229;-84
2021/08/03 02:40:05;;;;;;;1.53;1.13;;;;;;;15.89;74.70;100657.84;5067530;28;20208;-84
2021/08/03 02:42:33;;;;;;;2.40;1.00;;;;;;;15.87;74.86;100663.34;5064995;28;20235;-84
2021/08/03 02:45:02;;;;;;;2.57;0.90;;;;;;;15.83;75.05;100664.59;5068968;28;20216;-84
2021/08/03 02:47:37;;;;;;;1.70;1.03;;;;;;;15.79;75.12;100659.59;5066805;28;20661;-84
2021/08/03 02:50:07;;;;;;;0.97;0.90;;;;;;;15.77;74.84;100658.88;5055763;28;20290;-84
2021/08/03 02:52:38;;;;;;;2.33;1.10;;;;;;;15.75;74.86;100658.19;5066747;28;20206;-84
2021/08/03 02:55:10;;;;;;;2.53;1.07;;;;;;;15.74;75.14;100673.44;5056640;28;20238;-84
2021/08/03 02:57:38;;;;;;;1.87;0.70;;;;;;;15.73;75.40;100663.69;5071571;28;20233;-83
2021/08/03 03:00:07;;;;;;;1.33;0.90;;;;;;;15.73;75.14;100671.72;5069848;28;20209;-83
2021/08/03 03:02:37;;;;;;;2.03;1.20;;;;;;;15.73;75.24;100660.13;5071441;28;20225;-83
2021/08/03 03:05:11;;;;;;;1.93;1.00;;;;;;;15.73;74.95;100666.34;5064395;28;20210;-83
2021/08/03 03:07:41;;;;;;;1.70;1.23;;;;;;;15.73;75.31;100665.50;5070284;28;20698;-83
2021/08/03 03:10:13;;;;;;;2.50;1.20;;;;;;;15.73;74.72;100662.81;5065949;28;20654;-84
2021/08/03 03:12:43;;;;;;;2.47;1.03;;;;;;;15.72;74.99;100669.16;5071079;28;20734;-83
2021/08/03 03:15:11;;;;;;;1.10;0.90;;;;;;;15.69;75.09;100662.22;5067676;28;20203;-84
2021/08/03 03:17:38;;;;;;;1.27;1.13;;;;;;;15.68;74.85;100665.03;5071752;28;20604;-83
2021/08/03 03:20:08;;;;;;;3.43;1.10;;;;;;;15.62;75.07;100659.19;5069806;28;20202;-84
2021/08/03 03:22:39;;;;;;;2.63;1.30;;;;;;;15.56;75.04;100665.09;5063565;28;20216;-84
2021/08/03 03:25:07;;;;;;;2.90;1.30;;;;;;;15.50;75.28;100670.94;5070877;28;20652;-83
2021/08/03 03:27:34;;;;;;;1.30;1.10;;;;;;;15.49;75.43;100665.69;5066264;28;20229;-83
2021/08/03 03:30:02;;;;;;;1.10;1.00;;;;;;;15.47;75.50;100665.81;5075512;28;20196;-84
2021/08/03 03:32:31;;;;;;;2.43;1.10;;;;;;;15.48;76.01;100666.66;5067715;28;20205;-85
2021/08/03 03:34:58;;;;;;;2.10;0.87;;;;;;;15.47;76.07;100664.97;5053743;28;20284;-84
2021/08/03 03:37:27;;;;;;;2.70;1.30;;;;;;;15.45;75.85;100661.56;5071416;28;20596;-84
2021/08/03 03:39:57;;;;;;;3.67;1.33;;;;;;;15.43;76.07;100660.81;5061876;28;20605;-85
2021/08/03 03:42:28;;;;;;;0.80;0.80;;;;;;;15.44;76.33;100667.91;5069635;28;20207;-85
2021/08/03 03:44:55;;;;;;;3.90;1.10;;;;;;;15.44;76.27;100663.38;5061700;28;20202;-85
2021/08/03 03:47:27;;;;;;;1.83;1.10;;;;;;;15.44;76.15;100667.91;5063336;28;20303;-86
2021/08/03 03:49:59;;;;;;;3.53;1.30;;;;;;;15.44;76.23;100665.22;5069301;28;20208;-84
2021/08/03 03:52:34;;;;;;;3.30;1.10;;;;;;;15.46;76.24;100668.63;5066350;28;20689;-83
2021/08/03 03:55:03;;;;;;;2.57;1.40;;;;;;;15.44;76.31;100667.91;5055215;28;20199;-84
2021/08/03 03:57:31;;;;;;;3.53;1.50;;;;;;;15.44;76.38;100665.22;5066309;28;20292;-83
2021/08/03 03:59:59;;;;;;;2.50;1.20;;;;;;;15.42;76.37;100667.16;5072814;28;20189;-84
2021/08/03 04:02:29;;;;;;;2.23;1.30;;;;;;;15.41;76.21;100673.50;5072958;28;20216;-84
2021/08/03 04:04:59;;;;;;;3.13;1.33;;;;;;;15.38;76.49;100668.44;5066322;28;20225;-84
2021/08/03 04:07:29;;;;;;;3.03;1.30;;;;;;;15.36;76.49;100667.69;5073728;28;20294;-84
2021/08/03 04:10:04;;;;;;;2.53;1.30;;;;;;;15.37;76.63;100669.41;5070586;28;20204;-84
2021/08/03 04:12:31;;;;;;;2.47;1.10;;;;;;;15.39;77.03;100678.19;5074688;28;20216;-84
2021/08/03 04:14:57;;;;;;;1.73;1.40;;;;;;;15.38;76.86;100677.34;5066020;28;20291;-84
2021/08/03 04:17:24;;;;;;;2.57;1.83;;;;;;;15.38;77.09;100677.34;5075622;28;20644;-84
2021/08/03 04:19:50;;;;;;;2.63;1.47;;;;;;;15.38;77.27;100666.59;5069967;28;20201;-85
2021/08/03 04:22:17;;;;;;;3.43;1.47;;;;;;;15.39;76.93;100668.31;5070838;28;20197;-84
2021/08/03 04:24:45;;;;;;;3.07;1.57;;;;;;;15.39;77.27;100670.13;5072146;28;20226;-85
2021/08/03 04:27:12;;;;;;;3.07;1.60;;;;;;;15.40;76.79;100669.16;5068899;28;20231;-85
2021/08/03 04:29:38;;;;;;;1.70;1.37;;;;;;;15.40;76.99;100666.47;5072190;28;20667;-85
2021/08/03 04:32:05;;;;;;;2.37;1.60;;;;;;;15.40;77.23;100659.28;5068571;28;20206;-85
2021/08/03 04:34:33;;;;;;;2.83;1.60;;;;;;;15.43;76.99;100660.81;5066507;28;20244;-85
2021/08/03 04:37:01;;;;;;;2.67;1.60;;;;;;;15.43;77.30;100659.00;5075910;28;20645;-84
2021/08/03 04:39:28;;;;;;;3.40;1.57;;;;;;;15.44;77.16;100671.44;5064886;28;20624;-84
2021/08/03 04:41:56;;;;;;;1.57;1.20;;;;;;;15.47;77.26;100664.97;5076005;28;20283;-85
2021/08/03 04:44:23;;;;;;;3.70;1.90;;;;;;;15.48;76.81;100670.22;5060115;28;20226;-84
2021/08/03 04:46:49;;;;;;;3.10;1.67;;;;;;;15.51;77.05;100669.09;5065202;28;20264;-85
2021/08/03 04:49:16;;;;;;;3.77;1.80;;;;;;;15.53;77.02;100673.38;5052545;28;20202;-85
2021/08/03 04:51:42;;;;;;;2.07;1.40;;;;;;;15.55;76.95;100681.28;5064044;28;20198;-85
2021/08/03 04:54:09;;;;;;;2.77;1.57;;;;;;;15.56;77.21;100677.66;5056099;28;20209;-85
2021/08/03 04:56:35;;;;;;;1.47;1.20;;;;;;;15.56;76.94;100673.16;5069450;28;20229;-85
2021/08/03 04:59:03;;;;;;;3.93;1.60;;;;;;;15.58;77.14;100673.03;5071093;28;20203;-86
2021/08/03 05:01:30;;;;;;;3.10;1.60;;;;;;;15.60;77.17;100676.41;5056155;28;20199;-86
2021/08/03 05:03:57;;;;;;;2.60;1.33;;;;;;;15.64;76.86;100677.84;5059013;28;20229;-85
2021/08/03 05:06:23;;;;;;;7.23;1.87;;;;;;;15.63;76.87;100677.00;5059516;28;20322;-85
2021/08/03 05:08:50;;;;;;;2.80;1.27;;;;;;;15.63;77.11;100673.47;5068577;28;20209;-85
2021/08/03 05:11:17;;;;;;;1.97;1.30;;;;;;;15.62;77.09;100687.88;5066370;28;20206;-85
2021/08/03 05:13:43;;;;;;;3.20;1.50;;;;;;;15.59;76.92;100680.91;5065066;28;20213;-83
2021/08/03 05:16:11;;;;;;;1.93;1.50;;;;;;;15.58;77.22;100681.09;5059235;28;20218;-82
2021/08/03 05:18:38;;;;;;;3.90;1.40;;;;;;;15.59;77.55;100683.59;5060780;28;20213;-83
2021/08/03 05:21:04;;;;;;;3.03;1.20;;;;;;;15.62;77.42;100685.19;5060734;28;20197;-85
2021/08/03 05:23:31;;;;;;;2.40;1.60;;;;;;;15.63;77.55;100686.91;5064610;28;20231;-87
2021/08/03 05:25:57;;;;;;;2.33;1.50;;;;;;;15.63;77.32;100685.06;5067924;28;20236;-83
2021/08/03 05:28:24;;;;;;;2.53;1.53;;;;;;;15.66;77.45;100689.31;5065439;28;20202;-83
2021/08/03 05:30:50;;;;;;;4.60;1.70;;;;;;;15.69;77.42;100688.22;5069203;28;20207;-83
2021/08/03 05:33:18;;;;;;;2.73;1.50;;;;;;;15.72;77.45;100686.13;5071543;28;20336;-83
2021/08/03 05:35:45;;;;;;;3.03;1.57;;;;;;;15.75;77.15;100691.25;5067526;28;20209;-83
2021/08/03 05:38:11;;;;;;;3.53;1.50;;;;;;;15.79;76.89;100686.44;5072720;28;20323;-83
2021/08/03 05:40:38;;;;;;;2.87;1.70;;;;;;;15.81;76.70;100689.84;5066495;28;20208;-83
2021/08/03 05:43:05;;;;;;;3.90;1.60;;;;;;;15.84;76.55;100694.97;5053488;28;20201;-84
2021/08/03 05:45:31;;;;;;;3.33;1.70;;;;;;;15.88;76.70;100685.69;5052838;28;20301;-83
2021/08/03 05:47:58;;;;;;;3.27;1.93;;;;;;;15.89;76.27;100692.75;5067409;28;20217;-83
2021/08/03 05:50:26;;;;;;;2.93;1.67;;;;;;;15.92;75.95;100695.19;5069387;28;20205;-83
2021/08/03 05:52:52;;;;;;;2.73;1.73;;;;;;;15.96;76.21;100691.25;5057655;28;20203;-83
2021/08/03 05:55:19;;;;;;;3.43;1.87;;;;;;;16.02;76.23;100689.88;5058973;28;20281;-82
2021/08/03 05:57:45;;;;;;;2.57;1.80;;;;;;;16.05;75.98;100695.84;5057640;28;20229;-83
2021/08/03 06:00:13;;;;;;;2.93;1.80;;;;;;;16.09;76.02;100689.22;5066953;28;20208;-83
2021/08/03 06:02:40;;;;;;;3.17;1.57;;;;;;;16.17;76.05;100691.25;5044995;28;20601;-83
2021/08/03 06:05:08;;;;;;;4.17;1.70;;;;;;;16.25;75.86;100688.75;5046979;28;20749;-83
2021/08/03 06:07:41;;;;;;;1.70;1.57;;;;;;;16.33;75.61;100686.25;5046432;28;20374;-83
2021/08/03 06:10:12;;;;;;;2.60;1.50;;;;;;;16.42;75.51;100696.22;5051683;28;20206;-83
2021/08/03 06:12:40;;;;;;;2.50;1.40;;;;;;;16.48;74.99;100697.53;5051482;28;20212;-85
2021/08/03 06:15:07;;;;;;;3.67;1.70;;;;;;;16.53;74.50;100693.44;5057004;28;20206;-83
2021/08/03 06:17:37;;;;;;;10.13;2.00;;;;;;;16.58;74.33;100690.34;5052840;28;20581;-83
2021/08/03 06:20:05;;;;;;;2.57;1.50;;;;;;;16.60;73.96;100696.44;5045995;28;20199;-84
2021/08/03 06:22:36;;;;;;;2.60;1.70;;;;;;;16.65;73.83;100696.94;5050598;28;20218;-83
2021/08/03 06:25:04;;;;;;;3.40;2.00;;;;;;;16.69;73.60;100686.72;5051733;28;20219;-82
2021/08/03 06:27:32;;;;;;;4.20;1.70;;;;;;;16.78;73.88;100680.56;5053144;28;20661;-83
2021/08/03 06:30:02;;;;;;;3.67;1.93;;;;;;;16.89;73.70;100681.28;5055144;28;20227;-83
2021/08/03 06:32:28;;;;;;;3.30;2.00;;;;;;;17.00;73.39;100689.28;5068338;28;20685;-83
2021/08/03 06:34:55;;;;;;;4.17;1.73;;;;;;;17.10;72.93;100683.06;5058992;28;20195;-84
2021/08/03 06:37:21;;;;;;;5.20;1.80;;;;;;;17.18;72.49;100685.91;5058337;28;20227;-84
2021/08/03 06:39:50;;;;;;;2.90;1.80;;;;;;;17.31;72.20;100687.34;5069063;28;20211;-84
2021/08/03 06:42:28;;;;;;;4.00;1.80;;;;;;;17.45;71.64;100682.53;5050270;28;20205;-84
2021/08/03 06:45:01;;;;;;;41.87;4.87;;;;;;;17.56;71.52;100679.69;5048463;28;20222;-83
2021/08/03 06:47:39;;;;;;;7.23;1.97;;;;;;;17.74;71.14;100690.66;5051494;28;20336;-83
2021/08/03 06:50:09;;;;;;;3.83;2.17;;;;;;;17.88;70.58;100687.56;5046327;28;20574;-83
2021/08/03 06:52:37;;;;;;;8.03;2.37;;;;;;;18.00;70.07;100687.25;5050419;28;20216;-83
2021/08/03 06:55:07;;;;;;;8.77;2.20;;;;;;;18.13;69.63;100683.38;5048234;28;20664;-84
2021/08/03 06:57:36;;;;;;;11.87;2.47;;;;;;;18.21;68.87;100686.22;5045931;28;20227;-85
2021/08/03 07:00:07;;;;;;;5.77;1.97;;;;;;;18.28;68.21;100681.94;5046937;28;20204;-84
2021/08/03 07:02:37;;;;;;;8.57;2.23;;;;;;;18.33;67.94;100685.91;5043207;28;20658;-83
2021/08/03 07:05:08;;;;;;;8.90;1.87;;;;;;;18.43;67.92;100688.56;5044465;28;20595;-84
2021/08/03 07:07:36;;;;;;;2.40;1.60;;;;;;;18.55;67.51;100687.41;5041554;28;20751;-84
2021/08/03 07:10:05;;;;;;;9.77;1.77;;;;;;;18.66;66.67;100687.22;5044097;28;20203;-84
2021/08/03 07:12:33;;;;;;;3.87;1.73;;;;;;;18.73;66.05;100679.41;5048150;28;20209;-84
2021/08/03 07:15:00;;;;;;;4.30;1.40;;;;;;;18.82;65.80;100683.88;5047023;28;20213;-83
2021/08/03 07:17:29;;;;;;;2.60;1.63;;;;;;;18.91;64.73;100682.16;5046267;28;20243;-84
2021/08/03 07:19:58;;;;;;;3.00;1.43;;;;;;;18.95;64.28;100684.41;5044891;28;20201;-84
2021/08/03 07:22:25;;;;;;;3.67;1.67;;;;;;;19.00;64.07;100683.94;5050955;28;20210;-84
2021/08/03 07:24:52;;;;;;;57.13;5.70;;;;;;;19.07;64.33;100685.06;5049201;28;20319;-84
2021/08/03 07:27:19;;;;;;;7.13;2.60;;;;;;;19.20;64.34;100685.53;5046956;28;20225;-84
2021/08/03 07:29:47;;;;;;;24.73;3.33;;;;;;;19.30;63.53;100682.78;5050423;28;20221;-84
2021/08/03 07:32:13;;;;;;;220.37;20.50;;;;;;;19.40;63.58;100681.69;5051274;28;20206;-84
2021/08/03 07:34:41;;;;;;;44.27;5.53;;;;;;;19.59;63.50;100682.59;5046258;28;20560;-83
2021/08/03 07:37:09;;;;;;;5.77;2.33;;;;;;;19.79;62.83;100677.88;5048671;28;20305;-83
2021/08/03 07:39:37;;;;;;;4.03;1.63;;;;;;;19.90;61.13;100685.72;5046638;28;20226;-83
2021/08/03 07:42:05;;;;;;;2.93;1.37;;;;;;;19.96;60.75;100679.72;5046094;28;20204;-84
2021/08/03 07:44:31;;;;;;;2.80;1.30;;;;;;;20.06;60.67;100678.59;5051909;28;20262;-84
2021/08/03 07:47:00;;;;;;;2.10;1.30;;;;;;;20.20;59.67;100684.47;5052050;28;20236;-84
2021/08/03 07:49:26;;;;;;;2.70;1.10;;;;;;;20.31;58.90;100684.19;5048721;28;20214;-84
2021/08/03 07:51:53;;;;;;;3.93;1.30;;;;;;;20.43;58.82;100681.09;5054941;28;20199;-84
2021/08/03 07:54:20;;;;;;;3.77;1.37;;;;;;;20.58;57.93;100681.38;5045839;28;20212;-85
2021/08/03 07:56:47;;;;;;;7.03;1.30;;;;;;;20.64;56.98;100675.28;5048059;28;20227;-85
2021/08/03 07:59:14;;;;;;;2.87;0.90;;;;;;;20.71;56.70;100667.38;5056796;28;20296;-83
2021/08/03 08:01:40;;;;;;;9.43;1.83;;;;;;;20.88;56.94;100671.00;5051690;28;20208;-83
2021/08/03 08:04:08;;;;;;;18.67;3.03;;;;;;;21.11;56.40;100674.81;5046351;28;20211;-85
2021/08/03 08:06:35;;;;;;;3.40;1.37;;;;;;;21.33;55.28;100665.22;5049314;28;20235;-84
2021/08/03 08:09:01;;;;;;;3.80;0.90;;;;;;;21.48;54.73;100669.88;5047451;28;20217;-83
2021/08/03 08:11:28;;;;;;;1.42;0.70;;;;;;;21.63;53.75;100664.63;5050192;28;20206;-83
2021/08/03 08:13:54;;;;;;;2.90;1.20;;;;;;;21.68;53.07;100655.97;5058739;28;20250;-83
2021/08/03 08:16:21;;;;;;;1.77;1.30;;;;;;;21.73;53.61;100659.03;5046907;28;20251;-84
2021/08/03 08:18:47;;;;;;;2.55;1.23;;;;;;;21.85;54.00;100652.28;5051551;28;20206;-84
2021/08/03 08:21:15;;;;;;;3.20;1.40;;;;;;;22.06;54.17;100657.19;5041550;28;20208;-82
2021/08/03 08:23:42;;;;;;;3.00;1.45;;;;;;;22.19;53.31;100656.66;5048789;28;20212;-83
2021/08/03 08:26:09;;;;;;;2.28;1.30;;;;;;;22.28;52.89;100655.63;5047123;28;20226;-83
2021/08/03 08:28:36;;;;;;;1.10;1.00;;;;;;;22.24;52.18;100649.69;5056873;28;20214;-82
2021/08/03 08:31:02;;;;;;;2.53;1.60;;;;;;;22.14;52.05;100651.75;5055894;28;20284;-83
2021/08/03 08:33:29;;;;;;;3.35;1.30;;;;;;;22.06;52.48;100643.63;5055389;28;20217;-83
2021/08/03 08:35:55;;;;;;;3.63;1.20;;;;;;;22.01;52.64;100648.72;5051262;28;20225;-82
2021/08/03 08:38:23;;;;;;;2.50;1.20;;;;;;;21.93;52.53;100641.41;5049210;28;20220;-82
2021/08/03 08:40:51;;;;;;;1.70;1.13;;;;;;;21.83;52.52;100643.44;5042183;28;20219;-82
2021/08/03 08:43:17;;;;;;;3.78;1.60;;;;;;;21.72;52.62;100641.91;5050999;28;20286;-86
2021/08/03 08:45:45;;;;;;;3.13;1.17;;;;;;;21.76;53.46;100634.28;5056510;28;20658;-85
2021/08/03 08:48:12;;;;;;;29.10;5.05;;;;;;;21.78;52.76;100638.53;5058593;28;20304;-85
2021/08/03 08:50:39;;;;;;;4.45;2.20;;;;;;;21.74;52.11;100633.63;5054264;28;20209;-85
2021/08/03 08:53:06;;;;;;;16.58;2.45;;;;;;;21.69;51.97;100630.56;5064274;28;20202;-83
2021/08/03 08:55:35;;;;;;;4.53;1.23;;;;;;;21.70;51.67;100627.69;5058354;28;20204;-85
2021/08/03 08:58:02;;;;;;;3.92;1.50;;;;;;;21.76;52.08;100632.44;5053724;28;20655;-84
2021/08/03 09:00:29;;;;;;;3.05;1.10;;;;;;;21.94;52.23;100634.13;5047694;28;20301;-85
2021/08/03 09:02:56;;;;;;;3.65;0.90;;;;;;;22.09;50.38;100624.28;5054664;28;20201;-85
2021/08/03 09:05:28;;;;;;;1.65;1.00;;;;;;;22.17;50.03;100630.56;5063559;28;20229;-85
2021/08/03 09:07:57;;;;;;;3.92;1.00;;;;;;;22.26;49.45;100627.81;5061685;28;20286;-85
2021/08/03 09:10:32;;;;;;;1.75;1.00;;;;;;;22.28;49.55;100633.91;5058109;28;20215;-84
2021/08/03 09:13:02;;;;;;;2.65;1.10;;;;;;;22.28;49.28;100626.63;5058772;28;20212;-84
2021/08/03 09:15:29;;;;;;;82.55;10.75;;;;;;;22.23;49.55;100622.72;5058885;28;20201;-86
2021/08/03 09:18:10;;;;;;;1.90;1.20;;;;;;;22.17;49.36;100627.00;5060038;28;20221;-85
2021/08/03 09:20:37;;;;;;;13.15;2.13;;;;;;;22.12;49.25;100623.94;5049841;28;20216;-85
2021/08/03 09:23:04;;;;;;;3.15;1.10;;;;;;;22.14;49.20;100621.91;5051401;28;20292;-85
2021/08/03 09:25:31;;;;;;;1.50;1.05;;;;;;;22.22;49.29;100629.19;5047560;28;20225;-85
2021/08/03 09:28:04;;;;;;;2.15;1.10;;;;;;;22.27;48.79;100621.38;5048251;28;20202;-85
2021/08/03 09:30:33;;;;;;;1.35;1.00;;;;;;;22.33;49.42;100623.41;5056746;28;20209;-85
2021/08/03 09:32:59;;;;;;;2.22;0.98;;;;;;;22.45;49.41;100613.84;5050781;28;20205;-85
2021/08/03 09:35:28;;;;;;;5.05;1.00;;;;;;;22.50;48.64;100614.19;5057735;28;20205;-85
2021/08/03 09:37:56;;;;;;;35.50;6.28;;;;;;;22.50;48.59;100622.34;5058963;28;20233;-86
2021/08/03 09:40:25;;;;;;;2.45;1.48;;;;;;;22.54;48.36;100629.09;5057430;28;20232;-84
2021/08/03 09:43:04;;;;;;;16.42;2.90;;;;;;;22.65;48.14;100620.56;5052594;28;20208;-85
2021/08/03 09:45:33;;;;;;;2.13;1.40;;;;;;;22.70;47.19;100618.19;5053423;28;20316;-86
2021/08/03 09:48:12;;;;;;;2.25;1.38;;;;;;;22.81;47.16;100608.81;5057506;28;20240;-85
2021/08/03 09:50:53;;;;;;;4.72;1.50;;;;;;;23.01;47.50;100615.50;5047847;28;20284;-85
2021/08/03 09:53:38;;;;;;;6.28;1.20;;;;;;;23.18;46.32;100606.22;5045994;28;20298;-85
2021/08/03 09:56:05;;;;;;;4.18;1.80;;;;;;;23.28;45.87;100613.31;5047678;28;20213;-86
2021/08/03 09:58:33;;;;;;;3.15;1.77;;;;;;;23.28;45.32;100610.59;5054313;28;20234;-85
2021/08/03 10:01:24;;;;;;;2.63;1.40;;;;;;;23.18;45.46;100600.81;5058316;28;20200;-85
2021/08/03 10:03:52;;;;;;;3.50;1.52;;;;;;;23.18;46.01;100608.09;5065102;28;20790;-85
2021/08/03 10:06:19;;;;;;;2.45;1.35;;;;;;;23.21;45.93;100602.31;5061143;28;20312;-85
2021/08/03 10:08:47;;;;;;;1.90;1.38;;;;;;;23.29;45.50;100596.00;5046132;28;20695;-85
2021/08/03 10:11:14;;;;;;;4.55;1.30;;;;;;;23.34;45.11;100607.13;5065495;28;20210;-86
2021/08/03 10:13:43;;;;;;;4.00;1.50;;;;;;;23.40;44.74;100604.56;5051925;28;20208;-85
2021/08/03 10:16:09;;;;;;;2.15;1.20;;;;;;;23.40;44.57;100588.25;5063154;28;20465;-85
2021/08/03 10:18:39;;;;;;;2.85;1.25;;;;;;;23.43;44.41;100596.03;5052044;28;20210;-85
2021/08/03 10:21:07;;;;;;;3.30;1.40;;;;;;;23.47;44.72;100591.91;5064329;28;20205;-85
2021/08/03 10:23:36;;;;;;;2.75;1.15;;;;;;;23.50;44.92;100593.44;5061785;28;20555;-85
2021/08/03 10:26:09;;;;;;;2.35;1.30;;;;;;;23.52;44.62;100586.81;5043362;28;20230;-85
2021/08/03 10:28:36;;;;;;;2.38;1.13;;;;;;;23.53;44.51;100591.22;5060386;28;20207;-85
2021/08/03 10:31:04;;;;;;;1.55;1.10;;;;;;;23.49;43.94;100589.88;5056894;28;20203;-85
2021/08/03 10:33:41;;;;;;;1.92;1.30;;;;;;;23.41;44.71;100581.78;5062245;28;20687;-85
2021/08/03 10:36:09;;;;;;;2.03;1.38;;;;;;;23.38;44.45;100584.88;5053170;28;20350;-85
2021/08/03 10:38:35;;;;;;;2.13;1.20;;;;;;;23.37;44.75;100577.75;5066214;28;20208;-85
2021/08/03 10:41:07;;;;;;;4.72;1.10;;;;;;;23.40;44.77;100581.97;5055437;28;20211;-85
2021/08/03 10:43:42;;;;;;;5.75;1.25;;;;;;;23.39;44.44;100581.13;5044776;28;20268;-85
2021/08/03 10:46:41;;;;;;;1.63;1.13;;;;;;;23.36;43.76;100576.03;5064376;28;20746;-85
2021/08/03 10:49:08;;;;;;;2.03;1.30;;;;;;;23.31;43.95;100572.16;5043203;28;20209;-84
2021/08/03 10:51:48;;;;;;;1.77;1.10;;;;;;;23.30;43.57;100571.31;5055216;28;20212;-84
2021/08/03 10:54:17;;;;;;;2.05;1.10;;;;;;;23.31;43.66;100564.88;5070361;28;20236;-84
2021/08/03 10:57:22;;;;;;;2.97;1.23;;;;;;;23.35;43.31;100566.19;5060006;28;20221;-85
2021/08/03 11:00:00;;;;;;;3.05;1.00;;;;;;;23.33;43.66;100570.97;5045706;28;20215;-85
2021/08/03 11:02:49;;;;;;;3.67;1.10;;;;;;;23.30;43.42;100563.19;5043543;28;20236;-85
2021/08/03 11:05:30;;;;;;;2.53;1.20;;;;;;;23.25;43.47;100565.63;5041828;28;20753;-85
2021/08/03 11:07:57;;;;;;;2.85;1.08;;;;;;;23.23;43.18;100570.38;5042936;28;20221;-84
2021/08/03 11:10:33;;;;;;;2.10;1.08;;;;;;;23.22;43.06;100567.84;5055302;28;20214;-84
2021/08/03 11:13:03;;;;;;;2.70;1.10;;;;;;;23.20;42.72;100565.28;5037675;28;20710;-84
2021/08/03 11:15:40;;;;;;;1.83;1.25;;;;;;;23.22;42.71;100565.97;5063341;28;20205;-85
2021/08/03 11:18:11;;;;;;;3.20;1.02;;;;;;;23.19;43.00;100569.03;5060008;28;20205;-84
2021/08/03 11:21:09;;;;;;;1.83;1.08;;;;;;;23.13;43.66;100572.47;5063266;28;20212;-85
2021/08/03 11:23:59;;;;;;;1.65;1.27;;;;;;;23.05;43.71;100564.38;5062809;28;20217;-84
2021/08/03 11:26:28;;;;;;;2.42;1.20;;;;;;;22.92;43.68;100567.72;5050801;28;20261;-83
2021/08/03 11:29:00;;;;;;;2.42;1.25;;;;;;;22.77;43.58;100561.31;5067979;28;20203;-83
2021/08/03 11:31:55;;;;;;;1.20;1.10;;;;;;;22.66;44.11;100559.81;5051624;28;20293;-83
2021/08/03 11:34:25;;;;;;;1.95;1.10;;;;;;;22.60;44.57;100563.25;5017389;28;20215;-85